Time;durP1;ratioP1;P1;durP2;ratioP2;P2;SDS_P1;SDS_P2;PMS_P1;PMS_P2;Temp;Humidity;BMP_temperature;BMP_pressure;BME280_temperature;BME280_humidity;BME280_pressure;Samples;Min_cycle;Max_cycle;Signal;HPM_P1;HPM_P2
2024/01/23 00:01:03;;;;;;;22.38;5.15;;;5.00;99.90;;;;;;5099201;28;20031;-39
2024/01/23 00:03:30;;;;;;;19.90;5.93;;;4.90;99.90;;;;;;5093955;28;20020;-40
2024/01/23 00:05:55;;;;;;;21.65;5.10;;;4.90;99.90;;;;;;5095458;28;20452;-40
2024/01/23 00:08:21;;;;;;;19.73;5.40;;;4.90;99.90;;;;;;5101952;28;20028;-39
2024/01/23 00:10:47;;;;;;;34.05;6.57;;;4.90;99.90;;;;;;5100081;28;20023;-40
2024/01/23 00:13:12;;;;;;;29.98;5.93;;;4.90;99.90;;;;;;5099140;28;20602;-40
2024/01/23 00:15:38;;;;;;;30.20;7.15;;;5.00;99.90;;;;;;5102572;28;20503;-40
2024/01/23 00:18:06;;;;;;;27.40;6.10;;;5.00;99.90;;;;;;5099369;28;20481;-40
2024/01/23 00:20:31;;;;;;;33.05;7.55;;;5.10;99.90;;;;;;5102682;28;20038;-39
2024/01/23 00:22:57;;;;;;;29.45;6.90;;;5.10;99.90;;;;;;5099887;28;20023;-40
2024/01/23 00:25:23;;;;;;;32.78;7.38;;;5.20;99.90;;;;;;5102230;28;20043;-40
2024/01/23 00:27:48;;;;;;;29.35;9.27;;;5.20;99.90;;;;;;5101068;28;20034;-40
2024/01/23 00:30:14;;;;;;;37.55;7.70;;;5.30;99.90;;;;;;5099097;28;20123;-40
2024/01/23 00:32:40;;;;;;;32.63;7.72;;;5.40;99.90;;;;;;5100690;28;20024;-39
2024/01/23 00:35:07;;;;;;;27.05;6.40;;;5.40;99.90;;;;;;5099493;28;20073;-40
2024/01/23 00:37:32;;;;;;;20.13;5.25;;;5.50;99.90;;;;;;5102226;28;20038;-39
2024/01/23 00:39:59;;;;;;;20.92;4.95;;;5.50;99.90;;;;;;5099682;28;20028;-40
2024/01/23 00:42:25;;;;;;;18.55;3.97;;;5.50;99.90;;;;;;5101877;28;20107;-40
2024/01/23 00:44:53;;;;;;;19.45;5.07;;;5.50;99.90;;;;;;5099438;28;20516;-39
2024/01/23 00:47:18;;;;;;;20.65;5.63;;;5.50;99.90;;;;;;5101247;28;20470;-40
2024/01/23 00:49:44;;;;;;;23.10;5.03;;;5.50;99.90;;;;;;5101568;28;20031;-39
2024/01/23 00:52:10;;;;;;;19.58;4.75;;;5.50;99.90;;;;;;5100020;28;20028;-40
2024/01/23 00:54:35;;;;;;;17.25;4.30;;;5.50;99.90;;;;;;5102467;28;20024;-39
2024/01/23 00:57:01;;;;;;;22.48;5.22;;;5.50;99.90;;;;;;5098871;28;20189;-40
2024/01/23 00:59:26;;;;;;;23.48;4.88;;;5.50;99.90;;;;;;5102068;28;20028;-40
2024/01/23 01:01:52;;;;;;;24.42;5.63;;;5.50;99.90;;;;;;5100010;27;20027;-40
2024/01/23 01:04:18;;;;;;;27.45;5.63;;;5.50;99.90;;;;;;5099615;28;20412;-40
2024/01/23 01:06:44;;;;;;;28.13;5.35;;;5.50;99.90;;;;;;5101386;28;20020;-40
2024/01/23 01:09:10;;;;;;;30.05;4.60;;;5.50;99.90;;;;;;5100089;28;20367;-40
2024/01/23 01:11:35;;;;;;;18.88;5.20;;;5.50;99.90;;;;;;5097522;28;20476;-39
2024/01/23 01:14:01;;;;;;;22.48;5.30;;;5.60;99.90;;;;;;5098948;28;20504;-40
2024/01/23 01:16:27;;;;;;;26.48;6.00;;;5.60;99.90;;;;;;5091908;28;20043;-40
2024/01/23 01:18:53;;;;;;;25.92;6.55;;;5.60;99.90;;;;;;5093428;28;20031;-40
2024/01/23 01:21:18;;;;;;;25.88;5.93;;;5.70;99.90;;;;;;5100699;27;20469;-40
2024/01/23 01:23:44;;;;;;;29.48;7.35;;;5.70;99.90;;;;;;5101933;28;20023;-40
2024/01/23 01:26:10;;;;;;;29.60;6.30;;;5.60;99.90;;;;;;5100057;28;20020;-40
2024/01/23 01:28:37;;;;;;;24.92;6.22;;;5.60;99.90;;;;;;5102571;28;20094;-40
2024/01/23 01:31:02;;;;;;;30.50;6.05;;;5.70;99.90;;;;;;5094751;28;20521;-40
2024/01/23 01:33:28;;;;;;;22.40;6.22;;;5.70;99.90;;;;;;5088613;28;20031;-40
2024/01/23 01:35:54;;;;;;;29.60;5.60;;;5.70;99.90;;;;;;5088776;28;20304;-40
2024/01/23 01:38:20;;;;;;;21.23;5.78;;;5.70;99.90;;;;;;5089369;28;20012;-40
2024/01/23 01:40:45;;;;;;;28.77;6.40;;;5.70;99.90;;;;;;5088472;28;20401;-40
2024/01/23 01:43:25;;;;;;;26.70;5.85;;;5.70;99.90;;;;;;5088497;28;20162;-40
2024/01/23 01:46:18;;;;;;;24.58;4.88;;;5.70;99.90;;;;;;5092772;28;20019;-40
2024/01/23 01:48:46;;;;;;;23.38;5.20;;;5.70;99.90;;;;;;5094849;28;20389;-40
2024/01/23 01:51:12;;;;;;;18.33;5.13;;;5.70;99.90;;;;;;5099834;28;20020;-39
2024/01/23 01:53:39;;;;;;;19.10;5.25;;;5.70;99.90;;;;;;5098925;28;20035;-40
2024/01/23 01:56:06;;;;;;;26.13;5.85;;;5.70;99.90;;;;;;5087974;28;20642;-40
2024/01/23 01:58:32;;;;;;;23.05;5.13;;;5.70;99.90;;;;;;5087671;28;20028;-40
2024/01/23 02:01:01;;;;;;;17.30;5.35;;;5.70;99.90;;;;;;5097234;28;20116;-40
2024/01/23 02:03:27;;;;;;;19.70;5.15;;;5.70;99.90;;;;;;5095699;28;20522;-40
2024/01/23 02:05:55;;;;;;;22.17;4.40;;;5.60;99.90;;;;;;5100749;28;20099;-39
2024/01/23 02:08:21;;;;;;;19.80;4.72;;;5.60;99.90;;;;;;5101396;28;20024;-40
2024/01/23 02:10:46;;;;;;;13.98;3.75;;;5.60;99.90;;;;;;5101574;28;20032;-40
2024/01/23 02:13:12;;;;;;;17.13;4.15;;;5.60;99.90;;;;;;5100363;28;20097;-40
2024/01/23 02:15:38;;;;;;;16.05;4.43;;;5.60;99.90;;;;;;5102432;28;20016;-40
2024/01/23 02:18:03;;;;;;;24.15;4.93;;;5.60;99.90;;;;;;5099329;28;20532;-40
2024/01/23 02:20:29;;;;;;;17.08;3.17;;;5.60;99.90;;;;;;5100708;28;20047;-40
2024/01/23 02:22:55;;;;;;;14.77;3.60;;;5.60;99.90;;;;;;5100775;28;20012;-40
2024/01/23 02:25:20;;;;;;;13.88;3.80;;;5.70;99.90;;;;;;5101824;28;20046;-40
2024/01/23 02:27:46;;;;;;;15.40;2.45;;;5.70;99.90;;;;;;5101994;28;20046;-40
2024/01/23 02:30:12;;;;;;;9.80;2.85;;;5.80;99.90;;;;;;5102930;28;20031;-40
2024/01/23 02:32:45;;;;;;;12.85;2.50;;;5.80;99.90;;;;;;5102460;28;20115;-40
2024/01/23 02:35:10;;;;;;;12.57;2.88;;;5.80;99.90;;;;;;5103810;28;20016;-39
2024/01/23 02:37:36;;;;;;;12.55;3.08;;;5.90;99.90;;;;;;5105486;28;20069;-39
2024/01/23 02:40:03;;;;;;;16.10;2.83;;;5.90;99.90;;;;;;5101905;28;20489;-40
2024/01/23 02:42:28;;;;;;;13.60;3.03;;;5.90;99.90;;;;;;5105881;28;20047;-39
2024/01/23 02:44:54;;;;;;;18.58;3.17;;;5.90;99.90;;;;;;5104674;28;20719;-40
2024/01/23 02:47:20;;;;;;;10.75;3.55;;;5.90;99.90;;;;;;5104801;28;20076;-39
2024/01/23 02:49:46;;;;;;;12.43;2.95;;;5.90;99.90;;;;;;5105886;28;20031;-40
2024/01/23 02:52:12;;;;;;;14.38;3.03;;;5.90;99.90;;;;;;5103984;28;20043;-40
2024/01/23 02:54:38;;;;;;;15.20;2.88;;;5.90;99.90;;;;;;5106422;28;20019;-40
2024/01/23 02:57:04;;;;;;;9.70;2.70;;;5.90;99.90;;;;;;5103071;28;20080;-40
2024/01/23 02:59:29;;;;;;;13.25;3.33;;;6.00;99.90;;;;;;5106216;28;20090;-39
2024/01/23 03:01:55;;;;;;;16.30;3.40;;;6.00;99.90;;;;;;5102860;28;20032;-40
2024/01/23 03:04:21;;;;;;;8.45;2.13;;;6.00;99.90;;;;;;5105165;28;20151;-40
2024/01/23 03:06:46;;;;;;;11.10;2.85;;;6.00;99.90;;;;;;5104387;28;20430;-40
2024/01/23 03:09:13;;;;;;;17.08;3.13;;;6.00;99.90;;;;;;5103820;28;20095;-40
2024/01/23 03:11:39;;;;;;;9.98;2.75;;;6.00;99.90;;;;;;5104546;28;20069;-40
2024/01/23 03:14:05;;;;;;;19.90;3.75;;;6.00;99.90;;;;;;5103665;28;20028;-40
2024/01/23 03:16:31;;;;;;;17.52;3.55;;;6.00;99.90;;;;;;5106020;27;20008;-40
2024/01/23 03:18:56;;;;;;;14.73;3.28;;;6.10;99.90;;;;;;5103111;28;20023;-39
2024/01/23 03:21:22;;;;;;;12.20;2.72;;;6.10;99.90;;;;;;5105026;28;20058;-40
2024/01/23 03:23:48;;;;;;;16.77;2.90;;;6.10;99.90;;;;;;5105655;28;20016;-40
2024/01/23 03:26:13;;;;;;;10.98;3.20;;;6.10;99.90;;;;;;5102789;28;20385;-39
2024/01/23 03:28:39;;;;;;;21.50;3.30;;;6.10;99.90;;;;;;5106109;28;20043;-40
2024/01/23 03:31:05;;;;;;;16.38;3.13;;;6.10;99.90;;;;;;5103140;28;20019;-40
2024/01/23 03:33:31;;;;;;;15.45;3.47;;;6.20;99.90;;;;;;5106120;28;20558;-40
2024/01/23 03:35:56;;;;;;;13.18;3.05;;;6.20;99.90;;;;;;5104357;28;20102;-40
2024/01/23 03:38:22;;;;;;;20.63;4.65;;;6.20;99.90;;;;;;5104992;28;20183;-40
2024/01/23 03:40:48;;;;;;;20.25;4.22;;;6.20;99.90;;;;;;5101139;28;20098;-40
2024/01/23 03:43:13;;;;;;;21.77;4.18;;;6.30;99.90;;;;;;5104025;28;20047;-40
2024/01/23 03:45:39;;;;;;;20.15;4.40;;;6.30;99.90;;;;;;5104709;28;20015;-40
2024/01/23 03:48:06;;;;;;;23.95;3.75;;;6.30;99.90;;;;;;5103197;28;20496;-40
2024/01/23 03:50:32;;;;;;;20.55;3.58;;;6.30;99.90;;;;;;5105890;28;20141;-40
2024/01/23 03:52:58;;;;;;;28.15;3.85;;;6.30;99.90;;;;;;5104292;28;20103;-40
2024/01/23 03:55:23;;;;;;;22.77;4.00;;;6.40;99.90;;;;;;5105156;28;20031;-39
2024/01/23 03:57:49;;;;;;;15.63;4.65;;;6.40;99.90;;;;;;5105287;28;20396;-39
2024/01/23 04:00:15;;;;;;;23.40;4.53;;;6.40;99.90;;;;;;5103748;28;20040;-40
2024/01/23 04:02:41;;;;;;;23.27;4.43;;;6.50;99.90;;;;;;5105816;28;20012;-40
2024/01/23 04:05:07;;;;;;;18.73;3.53;;;6.40;99.90;;;;;;5103237;28;20038;-40
2024/01/23 04:07:34;;;;;;;23.23;5.38;;;6.50;99.90;;;;;;5104508;28;20043;-39
2024/01/23 04:10:06;;;;;;;13.43;3.20;;;6.50;99.90;;;;;;5103859;28;20024;-40
2024/01/23 04:12:31;;;;;;;20.00;5.05;;;6.50;99.90;;;;;;5092991;28;20322;-40
2024/01/23 04:14:58;;;;;;;13.60;3.85;;;6.50;99.90;;;;;;5104397;28;20090;-39
2024/01/23 04:17:25;;;;;;;22.05;4.65;;;6.50;99.90;;;;;;5094830;28;20122;-40
2024/01/23 04:19:50;;;;;;;17.80;4.18;;;6.50;99.90;;;;;;5105489;28;20416;-40
2024/01/23 04:22:16;;;;;;;27.90;5.30;;;6.50;99.90;;;;;;5103429;28;20016;-39
2024/01/23 04:24:41;;;;;;;22.10;4.07;;;6.60;99.90;;;;;;5105609;28;20068;-40
2024/01/23 04:27:07;;;;;;;22.30;4.28;;;6.50;99.90;;;;;;5103213;28;20081;-40
2024/01/23 04:29:33;;;;;;;22.20;3.65;;;6.60;99.90;;;;;;5104792;28;20023;-40
2024/01/23 04:31:59;;;;;;;11.68;3.65;;;6.60;99.90;;;;;;5103517;28;20389;-40
2024/01/23 04:34:25;;;;;;;16.70;3.83;;;6.60;99.90;;;;;;5103693;28;20098;-40
2024/01/23 04:36:50;;;;;;;20.60;3.50;;;6.60;99.90;;;;;;5105119;28;20510;-41
2024/01/23 04:39:16;;;;;;;23.77;3.63;;;6.60;99.90;;;;;;5103617;28;20081;-40
2024/01/23 04:41:42;;;;;;;18.63;3.30;;;6.60;99.90;;;;;;5105504;28;20474;-40
2024/01/23 04:44:07;;;;;;;14.75;3.67;;;6.60;99.90;;;;;;5101925;28;20024;-40
2024/01/23 04:46:33;;;;;;;20.90;3.50;;;6.60;99.90;;;;;;5105107;28;20306;-40
2024/01/23 04:48:59;;;;;;;23.00;4.25;;;6.60;99.90;;;;;;5103886;28;20028;-40
2024/01/23 04:51:25;;;;;;;18.05;3.70;;;6.60;99.90;;;;;;5104656;28;20516;-40
2024/01/23 04:53:53;;;;;;;14.82;3.33;;;6.70;99.90;;;;;;5105691;28;20050;-40
2024/01/23 04:56:19;;;;;;;15.13;3.65;;;6.60;99.90;;;;;;5098158;28;20093;-40
2024/01/23 04:58:45;;;;;;;16.13;3.50;;;6.60;99.90;;;;;;5099827;28;20370;-40
2024/01/23 05:01:10;;;;;;;17.80;3.80;;;6.60;99.90;;;;;;5102555;28;20032;-40
2024/01/23 05:03:36;;;;;;;18.80;3.80;;;6.60;99.90;;;;;;5105713;28;20489;-40
2024/01/23 05:06:04;;;;;;;22.50;3.80;;;6.60;99.90;;;;;;5103877;28;20026;-40
2024/01/23 05:08:30;;;;;;;17.15;3.38;;;6.60;99.90;;;;;;5091380;28;20016;-40
2024/01/23 05:10:55;;;;;;;24.27;4.00;;;6.60;99.90;;;;;;5103979;28;20031;-40
2024/01/23 05:13:21;;;;;;;27.48;3.95;;;6.70;99.90;;;;;;5104400;28;20408;-40
2024/01/23 05:15:47;;;;;;;20.10;3.63;;;6.70;99.90;;;;;;5105563;28;20019;-40
2024/01/23 05:18:12;;;;;;;18.30;3.67;;;6.70;99.90;;;;;;5103449;28;20033;-41
2024/01/23 05:20:38;;;;;;;16.90;3.75;;;6.70;99.90;;;;;;5100501;28;20016;-41
2024/01/23 05:23:06;;;;;;;17.55;3.30;;;6.70;99.90;;;;;;5103411;28;20019;-40
2024/01/23 05:25:32;;;;;;;20.25;3.95;;;6.70;99.90;;;;;;5105761;28;20070;-40
2024/01/23 05:27:58;;;;;;;19.02;4.15;;;6.70;99.90;;;;;;5104323;28;20108;-40
2024/01/23 05:30:24;;;;;;;14.25;3.13;;;6.70;99.90;;;;;;5104249;28;20027;-39
2024/01/23 05:32:50;;;;;;;11.52;4.07;;;6.70;99.90;;;;;;5099006;28;20405;-39
2024/01/23 05:35:16;;;;;;;14.73;4.15;;;6.70;99.90;;;;;;5089378;28;20491;-39
2024/01/23 05:37:42;;;;;;;21.02;3.15;;;6.70;99.90;;;;;;5088983;28;20478;-50
2024/01/23 05:40:13;;;;;;;16.05;2.92;;;6.70;99.90;;;;;;5087390;28;20036;-51
2024/01/23 05:42:39;;;;;;;18.13;3.83;;;6.70;99.90;;;;;;5088901;28;20065;-51
2024/01/23 05:45:09;;;;;;;16.60;3.85;;;6.70;99.90;;;;;;5084603;28;20035;-51
2024/01/23 05:47:35;;;;;;;19.17;3.28;;;6.70;99.90;;;;;;5087721;28;20028;-52
2024/01/23 05:50:01;;;;;;;19.85;3.90;;;6.70;99.90;;;;;;5086273;28;20024;-51
2024/01/23 05:52:32;;;;;;;18.88;4.78;;;6.70;99.90;;;;;;5087008;28;20015;-55
2024/01/23 05:54:59;;;;;;;17.20;3.90;;;6.70;99.90;;;;;;5085987;28;20026;-50
2024/01/23 05:57:25;;;;;;;14.43;2.70;;;6.70;99.90;;;;;;5086939;28;20025;-51
2024/01/23 05:59:51;;;;;;;16.50;3.58;;;6.70;99.90;;;;;;5087638;28;20035;-52
2024/01/23 06:02:16;;;;;;;19.83;3.70;;;6.70;99.90;;;;;;5087112;28;20020;-51
2024/01/23 06:04:42;;;;;;;20.98;4.35;;;6.70;99.90;;;;;;5087118;28;20024;-53
2024/01/23 06:07:08;;;;;;;22.52;3.90;;;6.70;99.90;;;;;;5085197;28;20531;-51
2024/01/23 06:09:33;;;;;;;21.90;3.75;;;6.70;99.90;;;;;;5089931;28;20015;-49
2024/01/23 06:11:59;;;;;;;17.52;3.95;;;6.70;99.90;;;;;;5090836;28;20024;-48
2024/01/23 06:14:25;;;;;;;15.05;4.35;;;6.70;99.90;;;;;;5090444;28;20021;-48
2024/01/23 06:16:50;;;;;;;26.77;5.00;;;6.70;99.90;;;;;;5091052;28;20024;-51
2024/01/23 06:19:18;;;;;;;19.80;3.25;;;6.60;99.90;;;;;;5091025;28;20343;-47
2024/01/23 06:21:43;;;;;;;20.73;3.08;;;6.60;99.90;;;;;;5091117;28;20016;-51
2024/01/23 06:24:09;;;;;;;17.52;3.40;;;6.60;99.90;;;;;;5091073;28;20028;-50
2024/01/23 06:26:35;;;;;;;21.70;3.85;;;6.60;99.90;;;;;;5091483;28;20016;-48
2024/01/23 06:29:02;;;;;;;15.95;4.38;;;6.50;99.90;;;;;;5089528;28;20472;-50
2024/01/23 06:31:27;;;;;;;27.70;3.55;;;6.60;99.90;;;;;;5091360;28;20050;-50
2024/01/23 06:33:53;;;;;;;16.60;3.70;;;6.50;99.90;;;;;;5093674;28;20465;-49
2024/01/23 06:36:19;;;;;;;19.40;3.88;;;6.50;99.90;;;;;;5094422;28;20020;-50
2024/01/23 06:38:45;;;;;;;18.38;3.72;;;6.50;99.90;;;;;;5092941;28;20431;-52
2024/01/23 06:41:11;;;;;;;18.27;3.95;;;6.50;99.90;;;;;;5093974;28;20035;-51
2024/01/23 06:43:36;;;;;;;14.60;3.28;;;6.50;99.90;;;;;;5093531;28;20043;-50
2024/01/23 06:46:02;;;;;;;29.27;4.35;;;6.50;99.90;;;;;;5093221;28;20479;-48
2024/01/23 06:48:30;;;;;;;24.35;4.60;;;6.50;99.90;;;;;;5094300;28;20016;-49
2024/01/23 06:50:55;;;;;;;16.50;4.00;;;6.50;99.90;;;;;;5099501;28;20024;-48
2024/01/23 06:53:21;;;;;;;21.95;4.00;;;6.50;99.90;;;;;;5108158;28;20028;-50
2024/01/23 06:55:48;;;;;;;20.85;4.68;;;6.40;99.90;;;;;;5109521;27;20024;-49
2024/01/23 06:58:14;;;;;;;18.83;3.65;;;6.40;99.90;;;;;;5106964;28;20027;-48
2024/01/23 07:00:40;;;;;;;20.85;4.97;;;6.50;99.90;;;;;;5106862;28;20016;-49
2024/01/23 07:03:08;;;;;;;27.25;4.85;;;6.40;99.90;;;;;;5106966;28;20016;-49
2024/01/23 07:05:34;;;;;;;23.65;4.25;;;6.40;99.90;;;;;;5109231;28;20016;-48
2024/01/23 07:07:59;;;;;;;24.70;4.55;;;6.40;99.90;;;;;;5108685;28;20100;-49
2024/01/23 07:10:25;;;;;;;14.95;4.15;;;6.40;99.90;;;;;;5108492;28;20023;-50
2024/01/23 07:12:50;;;;;;;17.80;3.97;;;6.40;99.90;;;;;;5109821;28;20457;-53
2024/01/23 07:15:16;;;;;;;22.38;5.00;;;6.50;99.90;;;;;;5107955;28;20031;-50
2024/01/23 07:17:42;;;;;;;23.73;4.95;;;6.50;99.90;;;;;;5109591;28;20038;-51
2024/01/23 07:20:10;;;;;;;25.52;5.30;;;6.50;99.90;;;;;;5107615;28;20054;-52
2024/01/23 07:22:35;;;;;;;20.83;4.30;;;6.40;99.90;;;;;;5108956;28;20044;-52
2024/01/23 07:25:02;;;;;;;24.80;5.82;;;6.40;99.90;;;;;;5109118;28;20211;-52
2024/01/23 07:27:28;;;;;;;12.90;3.85;;;6.40;99.90;;;;;;5109316;28;20023;-50
2024/01/23 07:29:53;;;;;;;23.77;4.63;;;6.30;99.90;;;;;;5109239;28;20020;-52
2024/01/23 07:32:19;;;;;;;23.17;4.25;;;6.20;99.90;;;;;;5100501;28;20439;-49
2024/01/23 07:34:45;;;;;;;22.92;4.18;;;6.20;99.90;;;;;;5109558;28;20106;-52
2024/01/23 07:37:10;;;;;;;18.52;4.32;;;6.20;99.90;;;;;;5108987;28;20028;-51
2024/01/23 07:39:36;;;;;;;23.10;5.75;;;6.10;99.90;;;;;;5109361;28;20055;-51
2024/01/23 07:42:02;;;;;;;17.75;4.05;;;6.10;99.90;;;;;;5107316;28;20019;-52
2024/01/23 07:44:28;;;;;;;35.22;7.05;;;6.20;99.90;;;;;;5109484;28;20015;-51
2024/01/23 07:46:54;;;;;;;28.70;5.78;;;6.20;99.90;;;;;;5109655;27;20376;-52
2024/01/23 07:49:20;;;;;;;26.63;5.18;;;6.20;99.90;;;;;;5101537;28;20028;-48
2024/01/23 07:51:46;;;;;;;22.85;4.55;;;6.20;99.90;;;;;;5108988;28;20103;-51
2024/01/23 07:54:11;;;;;;;40.50;5.28;;;6.20;99.90;;;;;;5108684;28;20035;-50
2024/01/23 07:56:37;;;;;;;17.48;4.72;;;6.20;99.90;;;;;;5109083;28;20027;-50
2024/01/23 07:59:02;;;;;;;26.40;4.85;;;6.30;99.90;;;;;;5109082;28;20461;-50
2024/01/23 08:01:28;;;;;;;23.05;4.43;;;6.30;99.90;;;;;;5099918;28;20368;-52
2024/01/23 08:03:54;;;;;;;22.45;4.30;;;6.30;99.90;;;;;;5109842;28;20517;-49
2024/01/23 08:06:19;;;;;;;24.38;4.70;;;6.40;99.90;;;;;;5108411;28;20107;-50
2024/01/23 08:08:45;;;;;;;22.75;5.63;;;6.40;99.90;;;;;;5109388;28;20389;-48
2024/01/23 08:11:13;;;;;;;25.83;4.68;;;6.40;99.90;;;;;;5108295;27;20027;-51
2024/01/23 08:13:39;;;;;;;21.50;4.57;;;6.50;99.90;;;;;;5108961;28;20030;-52
2024/01/23 08:16:14;;;;;;;30.13;5.25;;;6.40;99.90;;;;;;5108564;28;20027;-52
2024/01/23 08:18:39;;;;;;;22.55;5.53;;;6.50;99.90;;;;;;5109123;28;20019;-51
2024/01/23 08:21:05;;;;;;;32.85;5.55;;;6.50;99.90;;;;;;5107624;28;20054;-48
2024/01/23 08:23:31;;;;;;;30.30;5.18;;;6.50;99.90;;;;;;5109634;28;20082;-51
2024/01/23 08:25:57;;;;;;;26.58;4.97;;;6.50;99.90;;;;;;5109562;28;20098;-49
2024/01/23 08:28:23;;;;;;;25.02;4.72;;;6.50;99.90;;;;;;5109172;28;20040;-53
2024/01/23 08:30:49;;;;;;;22.70;4.30;;;6.50;99.90;;;;;;5103008;28;20058;-51
2024/01/23 08:33:19;;;;;;;27.17;5.28;;;6.50;99.90;;;;;;5107460;28;20427;-52
2024/01/23 08:35:46;;;;;;;20.15;4.85;;;6.60;99.90;;;;;;5109863;28;20469;-51
2024/01/23 08:38:11;;;;;;;31.33;4.55;;;6.60;99.90;;;;;;5107030;28;20038;-52
2024/01/23 08:40:37;;;;;;;30.88;5.88;;;6.60;99.90;;;;;;5089309;28;20394;-48
2024/01/23 08:43:04;;;;;;;24.90;5.63;;;6.70;99.90;;;;;;5089382;28;20024;-49
2024/01/23 08:45:30;;;;;;;23.73;4.20;;;6.70;99.90;;;;;;5089728;28;20013;-50
2024/01/23 08:47:55;;;;;;;25.38;5.45;;;6.70;99.90;;;;;;5097650;28;20030;-52
2024/01/23 08:50:21;;;;;;;21.50;4.70;;;6.80;99.90;;;;;;5090043;28;20024;-49
2024/01/23 08:52:48;;;;;;;23.83;4.20;;;6.80;99.90;;;;;;5088610;28;20397;-49
2024/01/23 08:55:14;;;;;;;30.83;5.13;;;6.80;99.90;;;;;;5089106;28;20020;-50
2024/01/23 08:57:40;;;;;;;30.45;4.97;;;6.80;99.90;;;;;;5089147;28;20099;-48
2024/01/23 09:00:12;;;;;;;20.73;4.50;;;6.80;99.90;;;;;;5089286;28;20028;-50
2024/01/23 09:02:38;;;;;;;26.02;4.72;;;6.80;99.90;;;;;;5081801;28;20023;-50
2024/01/23 09:05:04;;;;;;;23.55;5.10;;;6.80;99.90;;;;;;5089129;28;20028;-49
2024/01/23 09:07:29;;;;;;;27.23;5.53;;;6.80;99.90;;;;;;5088971;28;20028;-52
2024/01/23 09:09:55;;;;;;;25.92;4.72;;;6.80;99.90;;;;;;5088900;28;20081;-51
2024/01/23 09:12:21;;;;;;;24.55;4.25;;;6.80;99.90;;;;;;5088929;28;20063;-49
2024/01/23 09:14:47;;;;;;;23.88;5.05;;;6.90;99.90;;;;;;5088896;28;20418;-49
2024/01/23 09:17:13;;;;;;;26.52;6.13;;;6.90;99.90;;;;;;5086762;28;20061;-53
2024/01/23 09:19:39;;;;;;;32.55;5.55;;;6.90;99.90;;;;;;5087922;28;20013;-49
2024/01/23 09:22:05;;;;;;;30.98;5.93;;;6.90;99.90;;;;;;5087532;28;20084;-50
2024/01/23 09:24:30;;;;;;;21.38;5.07;;;7.00;99.90;;;;;;5086741;28;20107;-49
2024/01/23 09:27:01;;;;;;;19.58;4.82;;;7.10;99.90;;;;;;5087651;28;20081;-51
2024/01/23 09:29:27;;;;;;;31.20;5.80;;;7.20;99.90;;;;;;5088047;28;20183;-52
2024/01/23 09:31:53;;;;;;;31.15;5.30;;;7.30;99.90;;;;;;5089109;28;20077;-51
2024/01/23 09:34:18;;;;;;;25.23;5.10;;;7.40;99.90;;;;;;5089082;28;20110;-51
2024/01/23 09:36:44;;;;;;;35.53;6.55;;;7.40;99.90;;;;;;5089723;28;20404;-50
2024/01/23 09:39:13;;;;;;;25.67;5.28;;;7.40;99.90;;;;;;5090071;28;20162;-49
2024/01/23 09:41:44;;;;;;;33.35;5.93;;;7.40;99.90;;;;;;5089868;28;20497;-49
2024/01/23 09:44:11;;;;;;;27.00;6.72;;;7.40;99.90;;;;;;5094331;28;20024;-49
2024/01/23 09:46:37;;;;;;;30.98;5.43;;;7.40;99.90;;;;;;5093828;28;20024;-47
2024/01/23 09:49:03;;;;;;;31.25;6.05;;;7.30;99.90;;;;;;5093538;28;20362;-49
2024/01/23 09:51:29;;;;;;;27.10;6.75;;;7.30;99.90;;;;;;5094242;28;20027;-49
2024/01/23 09:53:55;;;;;;;37.97;5.68;;;7.30;99.90;;;;;;5093718;28;20027;-54
2024/01/23 09:56:22;;;;;;;36.72;7.07;;;7.30;99.90;;;;;;5093983;28;20020;-49
2024/01/23 09:58:48;;;;;;;24.23;5.70;;;7.40;99.90;;;;;;5093636;28;20032;-52
2024/01/23 10:01:15;;;;;;;25.63;6.18;;;7.40;99.90;;;;;;5094296;28;20024;-50
2024/01/23 10:03:48;;;;;;;26.75;6.95;;;7.50;99.90;;;;;;5092433;28;20069;-50
2024/01/23 10:06:14;;;;;;;31.20;6.53;;;7.60;99.90;;;;;;5094569;28;20024;-49
2024/01/23 10:08:40;;;;;;;23.77;5.95;;;7.70;99.90;;;;;;5094425;28;20032;-50
2024/01/23 10:11:05;;;;;;;26.23;5.57;;;7.70;99.90;;;;;;5093830;28;20336;-50
2024/01/23 10:13:31;;;;;;;26.67;5.10;;;7.80;99.90;;;;;;5094353;28;20449;-53
2024/01/23 10:15:57;;;;;;;31.73;5.90;;;7.90;99.90;;;;;;5093735;28;20016;-52
2024/01/23 10:18:25;;;;;;;32.15;5.93;;;8.00;99.90;;;;;;5094623;28;20085;-51
2024/01/23 10:20:51;;;;;;;30.55;5.53;;;8.10;99.90;;;;;;5093436;28;20405;-52
2024/01/23 10:23:17;;;;;;;35.70;5.72;;;8.20;99.90;;;;;;5094890;28;20020;-50
2024/01/23 10:25:43;;;;;;;28.13;5.38;;;8.20;99.90;;;;;;5093976;28;20071;-49
2024/01/23 10:28:10;;;;;;;30.65;5.30;;;8.20;99.90;;;;;;5094673;28;20039;-48
2024/01/23 10:30:39;;;;;;;27.92;5.88;;;8.20;99.90;;;;;;5093607;28;20114;-51
2024/01/23 10:33:10;;;;;;;25.63;5.70;;;8.20;99.90;;;;;;5094132;28;20049;-52
2024/01/23 10:35:36;;;;;;;30.63;5.50;;;8.20;99.90;;;;;;5092511;28;20266;-50
2024/01/23 10:38:03;;;;;;;25.33;6.28;;;8.10;99.90;;;;;;5093862;28;20088;-52
2024/01/23 10:40:29;;;;;;;30.73;5.38;;;8.10;99.90;;;;;;5094151;28;20320;-50
2024/01/23 10:42:56;;;;;;;25.50;5.93;;;8.10;99.90;;;;;;5093808;28;20062;-49
2024/01/23 10:45:23;;;;;;;34.50;5.75;;;8.10;99.90;;;;;;5093260;28;20035;-51
2024/01/23 10:47:51;;;;;;;33.58;5.93;;;8.10;99.90;;;;;;5093291;28;20389;-51
2024/01/23 10:50:20;;;;;;;21.35;5.80;;;8.20;99.90;;;;;;5093123;28;20472;-52
2024/01/23 10:52:47;;;;;;;24.20;5.38;;;8.40;99.90;;;;;;5093062;28;20434;-52
2024/01/23 10:55:13;;;;;;;28.73;5.85;;;8.50;99.90;;;;;;5093932;28;20042;-51
2024/01/23 10:57:39;;;;;;;27.45;6.10;;;8.60;99.90;;;;;;5092886;28;20016;-52
2024/01/23 11:00:10;;;;;;;25.30;5.32;;;8.60;99.90;;;;;;5092510;28;20466;-49
2024/01/23 11:02:45;;;;;;;32.17;7.82;;;8.60;99.90;;;;;;5092902;28;20023;-51
2024/01/23 11:05:11;;;;;;;34.30;6.50;;;8.60;99.90;;;;;;5093424;28;20039;-52
2024/01/23 11:07:52;;;;;;;30.90;5.63;;;8.70;99.90;;;;;;5093844;28;20016;-51
2024/01/23 11:10:33;;;;;;;28.95;5.80;;;8.70;99.90;;;;;;5095999;28;20105;-52
2024/01/23 11:13:27;;;;;;;24.63;5.65;;;8.80;99.90;;;;;;5091339;28;20039;-49
2024/01/23 11:15:52;;;;;;;29.25;6.05;;;8.90;99.90;;;;;;5088504;28;20032;-51
2024/01/23 11:18:28;;;;;;;27.40;5.35;;;8.90;99.90;;;;;;5102138;28;20027;-52
2024/01/23 11:21:09;;;;;;;27.48;5.43;;;8.90;99.90;;;;;;5093296;28;20020;-51
2024/01/23 11:23:40;;;;;;;32.22;5.97;;;9.00;99.90;;;;;;5092722;28;20285;-52
2024/01/23 11:26:22;;;;;;;36.83;6.00;;;8.90;99.90;;;;;;5093597;28;20052;-50
2024/01/23 11:29:04;;;;;;;27.42;5.57;;;8.70;99.90;;;;;;5086153;28;20497;-51
2024/01/23 11:31:37;;;;;;;24.92;5.75;;;8.80;99.90;;;;;;5100417;28;20065;-50
2024/01/23 11:34:21;;;;;;;25.10;5.40;;;8.60;99.90;;;;;;5096852;28;20062;-49
2024/01/23 11:36:47;;;;;;;26.73;5.93;;;8.50;99.90;;;;;;5087978;28;20377;-48
2024/01/23 11:39:15;;;;;;;26.52;5.38;;;8.60;99.90;;;;;;5095035;28;20036;-49
2024/01/23 11:41:47;;;;;;;26.02;5.82;;;8.70;99.90;;;;;;5093498;28;20020;-51
2024/01/23 11:44:17;;;;;;;28.08;5.25;;;8.70;99.90;;;;;;5094845;28;20055;-49
2024/01/23 11:46:47;;;;;;;34.63;6.15;;;8.70;99.90;;;;;;5093499;28;20020;-50
2024/01/23 11:49:12;;;;;;;27.75;5.70;;;9.00;99.90;;;;;;5095133;28;20099;-49
2024/01/23 11:51:39;;;;;;;24.00;4.70;;;9.50;99.90;;;;;;5094591;27;20147;-50
2024/01/23 11:54:11;;;;;;;23.00;5.65;;;10.50;99.90;;;;;;5094214;28;20448;-52
2024/01/23 11:56:38;;;;;;;28.15;6.13;;;10.60;99.90;;;;;;5095247;28;20130;-50
2024/01/23 11:59:03;;;;;;;26.75;6.35;;;10.40;99.90;;;;;;5091641;28;20077;-54
2024/01/23 12:01:30;;;;;;;21.70;4.50;;;10.20;99.90;;;;;;5085937;28;20386;-54
2024/01/23 12:03:56;;;;;;;32.08;7.22;;;10.60;99.90;;;;;;5091316;28;20017;-53
2024/01/23 12:06:23;;;;;;;25.65;7.85;;;10.80;99.90;;;;;;5093353;28;20024;-53
2024/01/23 12:08:49;;;;;;;26.02;6.03;;;11.10;99.90;;;;;;5092508;28;20197;-53
2024/01/23 12:11:16;;;;;;;38.13;6.75;;;11.50;99.90;;;;;;5093322;28;20036;-53
2024/01/23 12:13:46;;;;;;;23.23;5.82;;;12.10;99.90;;;;;;5091616;28;20103;-51
2024/01/23 12:16:12;;;;;;;21.83;5.03;;;11.90;99.90;;;;;;5093791;28;20028;-53
2024/01/23 12:18:37;;;;;;;25.17;5.82;;;11.50;99.90;;;;;;5095098;27;20063;-52
2024/01/23 12:21:04;;;;;;;23.40;5.20;;;11.30;99.90;;;;;;5092895;28;20231;-52
2024/01/23 12:23:31;;;;;;;31.70;6.40;;;11.00;99.90;;;;;;5091795;28;20024;-51
2024/01/23 12:25:57;;;;;;;25.23;5.90;;;10.70;99.90;;;;;;5094062;28;20090;-53
2024/01/23 12:28:23;;;;;;;23.90;6.18;;;11.10;99.90;;;;;;5096108;28;20031;-53
2024/01/23 12:30:49;;;;;;;24.88;5.70;;;11.30;99.90;;;;;;5090872;28;20024;-51
2024/01/23 12:33:16;;;;;;;29.60;5.30;;;11.30;99.90;;;;;;5095649;28;20542;-54
2024/01/23 12:35:42;;;;;;;29.63;5.50;;;11.20;99.90;;;;;;5094864;28;20024;-54
2024/01/23 12:38:08;;;;;;;18.83;4.35;;;11.30;99.90;;;;;;5089784;28;20074;-54
2024/01/23 12:40:35;;;;;;;24.90;6.00;;;11.00;99.90;;;;;;5089549;28;20436;-53
2024/01/23 12:43:01;;;;;;;28.52;5.60;;;10.60;99.90;;;;;;5091008;28;20016;-54